M I D A S
Marine Information and Data Acquisition System
Tripno 2251 of the Zeeleeuw from 2012-01-09 07:45:25 to 2012-01-09 16:54:30
Back to CruiseResearch ActivitiesStationsMapUnderway DataData graphs

EquipmentUnitsComment
TimeDGPSUTC
LatitudeDGPSDM.mWGS84
LongitudeDGPSDM.mWGS84
HeadingGyrodeg 
SOGDGPSknotsSpeed over ground
COGDGPSdegCourse over ground
DepthEcho soundermeters200 kHz
Missing or incorrect values are displayed as -999
Navigation data collected by the RV Zeeleeuw from 2012-01-09 07:41:39 to 2012-01-09 17:03:19
Time Latitude Longitude Heading SOG COG Depth
2012-01-09 07:42:44 51°13.636 2°56.018 124.4 -999 194 -999
2012-01-09 07:43:44 51°13.635 2°56.018 124.7 0.1 180 -999
2012-01-09 07:44:44 51°13.636 2°56.018 126.3 0.1 15 -999
2012-01-09 07:45:44 51°13.636 2°56.018 126.4 0.1 17 -999
2012-01-09 07:46:44 51°13.636 2°56.018 126.4 -999 10 -999
2012-01-09 07:47:44 51°13.635 2°56.018 126.1 0.1 190 -999
2012-01-09 07:48:44 51°13.636 2°56.019 125.7 0.1 39 7.4
2012-01-09 07:49:44 51°13.636 2°56.019 118.5 0.1 348 -999
2012-01-09 07:50:44 51°13.634 2°56.018 110.4 -999 199 -999
2012-01-09 07:51:43 51°13.64 2°55.997 105.4 2.8 290 -999
2012-01-09 07:52:44 51°13.66 2°55.898 106.6 4 289 -999
2012-01-09 07:53:44 51°13.691 2°55.795 118.8 4.4 300 -999
2012-01-09 07:54:44 51°13.736 2°55.707 138.7 4.2 318 -999
2012-01-09 07:55:44 51°13.803 2°55.647 162.7 5.2 342 -999
2012-01-09 07:56:44 51°13.892 2°55.636 185 5.2 5 -999
2012-01-09 07:57:44 51°13.964 2°55.662 201.8 3.5 20 -999
2012-01-09 07:58:44 51°13.967 2°55.635 265.9 2.4 275 -999
2012-01-09 07:59:44 51°14.003 2°55.566 320.8 4.6 324 9.6
2012-01-09 08:00:43 51°14.092 2°55.474 326.3 7.7 328 -999
2012-01-09 08:01:44 51°14.216 2°55.352 327.6 9 328 -999
2012-01-09 08:02:44 51°14.355 2°55.217 328.9 10.4 330 -999
2012-01-09 08:03:44 51°14.509 2°55.072 327.6 11 328 -999
2012-01-09 08:04:42 51°14.654 2°54.9 325.1 11.8 323 11.1
2012-01-09 08:05:41 51°14.809 2°54.711 328 12 324 10.8
2012-01-09 08:06:44 51°14.976 2°54.516 325 11.8 315 10.6
2012-01-09 08:07:42 51°15.064 2°54.248 294.9 11.8 290 7.9
2012-01-09 08:08:41 51°15.118 2°53.944 287.9 12.3 286 8.5
2012-01-09 08:09:41 51°15.18 2°53.635 291.9 12.2 288 9.2
2012-01-09 08:10:41 51°15.226 2°53.319 280.2 12.3 276 9.7
2012-01-09 08:11:41 51°15.234 2°52.989 273.9 12.4 272 10
2012-01-09 08:12:41 51°15.255 2°52.661 281.7 12.3 279 10.4
2012-01-09 08:13:41 51°15.279 2°52.332 278.6 12.5 275 10.9
2012-01-09 08:14:41 51°15.3 2°51.997 278.7 12.8 275 11.2
2012-01-09 08:15:41 51°15.296 2°51.655 266 13.1 263 11.7
2012-01-09 08:16:41 51°15.273 2°51.311 262.9 13 260 11.8
2012-01-09 08:17:41 51°15.218 2°50.972 257 13.2 255 12
2012-01-09 08:18:41 51°15.171 2°50.631 260.7 13.2 259 12.2
2012-01-09 08:19:41 51°15.121 2°50.291 255.1 13.1 253 12.4
2012-01-09 08:20:41 51°15.062 2°49.954 259.2 13.2 258 12.3
2012-01-09 08:21:41 51°15.029 2°49.611 266.9 13 264 12.3
2012-01-09 08:22:41 51°15.013 2°49.273 270.8 12.7 269 12.5
2012-01-09 08:23:41 51°15.014 2°48.937 272.9 12.6 270 12.1
2012-01-09 08:24:41 51°15.008 2°48.6 271 12.7 268 12.2
2012-01-09 08:25:41 51°14.997 2°48.264 267.9 12.7 266 12.5
2012-01-09 08:26:41 51°14.978 2°47.927 268.2 12.8 266 12.6
2012-01-09 08:27:41 51°14.964 2°47.588 269.9 12.8 267 12.1
2012-01-09 08:28:41 51°14.955 2°47.252 270.8 12.6 268 10.5
2012-01-09 08:29:41 51°14.943 2°46.92 268.9 12.5 264 9.1
2012-01-09 08:30:41 51°14.894 2°46.596 256.3 12.6 253 8.9
2012-01-09 08:31:41 51°14.806 2°46.292 237.1 12.7 234 8.8
2012-01-09 08:32:41 51°14.686 2°46.014 236.9 12.7 235 8.3
2012-01-09 08:33:41 51°14.569 2°45.734 238.5 12.5 237 8
2012-01-09 08:34:41 51°14.461 2°45.447 241.5 12.5 240 7.6
2012-01-09 08:35:41 51°14.352 2°45.159 239.1 12.7 240 7.5
2012-01-09 08:36:41 51°14.229 2°44.885 232.5 12.7 234 7.4
2012-01-09 08:37:41 51°14.103 2°44.616 233.5 12.7 235 7.4
2012-01-09 08:38:41 51°13.977 2°44.346 233.8 12.7 235 7.9
2012-01-09 08:39:41 51°13.855 2°44.072 236.9 12.6 238 8.5
2012-01-09 08:40:41 51°13.74 2°43.789 237.5 12.7 237 9.1
2012-01-09 08:41:41 51°13.635 2°43.496 239.1 12.8 240 10.1
2012-01-09 08:42:41 51°13.523 2°43.209 237.7 12.8 238 10.1
2012-01-09 08:43:41 51°13.413 2°42.918 241.3 12.9 241 10.5
2012-01-09 08:44:41 51°13.302 2°42.624 239.1 13.1 239 10.9
2012-01-09 08:45:41 51°13.183 2°42.331 235.4 13.1 234 11.2
2012-01-09 08:46:41 51°13.063 2°42.043 238.3 13 237 11.3
2012-01-09 08:47:41 51°12.944 2°41.755 235.7 13.1 236 11.3
2012-01-09 08:48:41 51°12.825 2°41.47 237.8 12.8 237 11
2012-01-09 08:49:41 51°12.712 2°41.178 240.9 13.1 241 11.3
2012-01-09 08:50:41 51°12.611 2°40.878 242.4 12.8 240 11.6
2012-01-09 08:51:41 51°12.498 2°40.587 237.4 12.7 237 11.4
2012-01-09 08:52:41 51°12.381 2°40.302 238.2 13 240 11.2
2012-01-09 08:53:41 51°12.277 2°40.005 242.3 12.7 240 11.1
2012-01-09 08:54:41 51°12.173 2°39.708 241.5 12.8 240 10.4
2012-01-09 08:55:41 51°12.059 2°39.421 237.1 12.8 236 10.8
2012-01-09 08:56:41 51°11.949 2°39.132 240.9 12.8 239 10.7
2012-01-09 08:57:41 51°11.831 2°38.852 235.8 12.7 235 10.4
2012-01-09 08:58:41 51°11.724 2°38.562 242.4 12.7 244 10.4
2012-01-09 08:59:41 51°11.613 2°38.275 236.6 12.6 236 10.7
2012-01-09 09:00:41 51°11.498 2°37.991 239.8 12.8 242 11.3
2012-01-09 09:01:41 51°11.394 2°37.697 242.4 12.7 241 12.2
2012-01-09 09:02:41 51°11.285 2°37.405 239.3 12.8 238 12.6
2012-01-09 09:03:41 51°11.167 2°37.123 238.3 12.7 240 12.6
2012-01-09 09:04:41 51°11.045 2°36.849 225.1 12.8 225 12.3
2012-01-09 09:05:41 51°10.869 2°36.675 197.2 12.5 197 11.7
2012-01-09 09:06:41 51°10.668 2°36.719 154.9 12.5 158 9.9
2012-01-09 09:07:41 51°10.492 2°36.878 136.4 12.1 138 9.6
2012-01-09 09:08:41 51°10.374 2°37.139 109 12.1 111 16.8
2012-01-09 09:09:41 51°10.37 2°37.437 68.8 11.4 67 17.9
2012-01-09 09:10:41 51°10.488 2°37.677 52.3 11.8 55 17.5
2012-01-09 09:11:41 51°10.579 2°37.954 61.3 11.8 64 17
2012-01-09 09:12:41 51°10.668 2°38.233 60.6 11.9 65 17.4
2012-01-09 09:13:41 51°10.688 2°38.509 116.2 10.7 125 17.9
2012-01-09 09:14:41 51°10.552 2°38.733 129.5 12 136 17.3
2012-01-09 09:15:41 51°10.405 2°38.953 130 12.4 138 16.1
2012-01-09 09:16:41 51°10.217 2°38.988 194.9 12 203 15.1
2012-01-09 09:17:41 51°10.078 2°38.753 229.3 12.5 230 15.2
2012-01-09 09:18:41 51°9.974 2°38.465 240.9 12.5 242 15.2
2012-01-09 09:19:41 51°9.877 2°38.168 241.2 12.6 242 15.6
2012-01-09 09:20:41 51°9.779 2°37.873 238.9 12.5 241 15.6
2012-01-09 09:21:41 51°9.674 2°37.585 238.8 12.6 240 15.7
2012-01-09 09:22:41 51°9.573 2°37.295 241.8 12.7 243 15.9
2012-01-09 09:23:41 51°9.484 2°36.998 244.8 12.4 248 15.9
2012-01-09 09:24:41 51°9.401 2°36.695 245.5 12.4 246 15.8
2012-01-09 09:25:41 51°9.316 2°36.396 242 12.5 243 16.2
2012-01-09 09:26:41 51°9.221 2°36.103 243.2 12.5 245 16.4
2012-01-09 09:27:41 51°9.135 2°35.803 243.3 12.5 244 16.6
2012-01-09 09:28:41 51°9.041 2°35.511 242.6 12.4 244 16.7
2012-01-09 09:29:41 51°8.954 2°35.214 244.5 12.4 245 16.8
2012-01-09 09:30:41 51°8.86 2°34.922 242.8 12.3 244 16.9
2012-01-09 09:31:41 51°8.776 2°34.623 244.7 12.4 245 17.4
2012-01-09 09:32:41 51°8.687 2°34.327 241.8 12.4 242 17.8
2012-01-09 09:33:41 51°8.589 2°34.04 241.7 12.3 241 17.7
2012-01-09 09:34:41 51°8.5 2°33.748 245.4 12.2 247 17.4
2012-01-09 09:35:41 51°8.425 2°33.446 249 12.2 250 17.3
2012-01-09 09:36:41 51°8.342 2°33.15 245.3 12.3 246 17
2012-01-09 09:37:41 51°8.323 2°32.847 288.4 11.6 292 17.7
2012-01-09 09:38:41 51°8.477 2°32.674 340.6 11.9 342 19.4
2012-01-09 09:39:41 51°8.642 2°32.789 44 11.8 43 20.6
2012-01-09 09:40:41 51°8.801 2°32.982 35.6 12 36 19.2
2012-01-09 09:41:41 51°8.962 2°33.173 38.4 12.2 39 19.4
2012-01-09 09:42:41 51°9.117 2°33.377 40 12.1 39 19.3
2012-01-09 09:43:41 51°9.275 2°33.574 38.5 12.1 38 18.1
2012-01-09 09:44:41 51°9.431 2°33.782 38.5 12.4 40 17.3
2012-01-09 09:45:41 51°9.584 2°33.998 40.2 12.3 43 14.6
2012-01-09 09:46:41 51°9.733 2°34.219 39.6 12.3 42 12.5
2012-01-09 09:47:41 51°9.887 2°34.432 37.6 12.3 41 11.7
2012-01-09 09:48:41 51°10.043 2°34.642 39.8 12.3 44 12
2012-01-09 09:49:41 51°10.192 2°34.867 39.9 12.3 41 12.3
2012-01-09 09:50:41 51°10.341 2°35.089 39.6 12.2 41 11.2
2012-01-09 09:51:41 51°10.497 2°35.295 37.3 12.2 42 11.2
2012-01-09 09:52:41 51°10.644 2°35.517 41.8 12.2 44 11.5
2012-01-09 09:53:41 51°10.798 2°35.726 35.7 12.1 36 11.4
2012-01-09 09:54:41 51°10.958 2°35.923 34.3 12.1 37 12
2012-01-09 09:55:41 51°11.128 2°36.094 27.3 12 30 11.7
2012-01-09 09:56:41 51°11.296 2°36.267 31.5 12.1 35 12
2012-01-09 09:57:41 51°11.466 2°36.438 27.7 12.1 29 11.8
2012-01-09 09:58:41 51°11.635 2°36.612 33.5 12 35 12.3
2012-01-09 09:59:41 51°11.799 2°36.797 31.6 12.1 34 11.9
2012-01-09 10:00:41 51°11.97 2°36.963 27.1 11.9 29 12.2
2012-01-09 10:01:41 51°12.139 2°37.136 29.1 12 31 12.1
2012-01-09 10:02:41 51°12.308 2°37.306 29.2 12 32 12.6
2012-01-09 10:03:41 51°12.475 2°37.484 31.1 12.1 33 13
2012-01-09 10:04:41 51°12.636 2°37.68 36.1 12.2 39 13.4
2012-01-09 10:05:41 51°12.797 2°37.875 34.3 12.2 36 14.2
2012-01-09 10:06:41 51°12.961 2°38.066 32.5 12.1 36 15.1
2012-01-09 10:07:41 51°13.122 2°38.261 35.2 12.2 37 15.4
2012-01-09 10:08:41 51°13.282 2°38.462 34.3 12.3 38 15.8
2012-01-09 10:09:41 51°13.444 2°38.658 34.2 12.3 37 15.7
2012-01-09 10:10:41 51°13.61 2°38.846 31.3 12.2 36 16
2012-01-09 10:11:41 51°13.769 2°39.05 40.1 12.3 42 15.8
2012-01-09 10:12:41 51°13.916 2°39.276 39.8 12.3 42 15.6
2012-01-09 10:13:41 51°14.068 2°39.497 39 12.4 42 15.5
2012-01-09 10:14:41 51°14.219 2°39.721 39.9 12.3 43 15
2012-01-09 10:15:41 51°14.372 2°39.938 39.7 12.3 43 14.5
2012-01-09 10:16:41 51°14.522 2°40.16 41.4 12.3 45 14.3
2012-01-09 10:17:41 51°14.671 2°40.386 39.9 12.3 45 14.5
2012-01-09 10:18:41 51°14.825 2°40.603 38.9 12.3 41 14.1
2012-01-09 10:19:41 51°14.977 2°40.823 38.8 12.2 41 13.4
2012-01-09 10:20:41 51°15.147 2°40.992 25.3 12.2 28 13.2
2012-01-09 10:21:41 51°15.324 2°41.148 26.9 12.2 29 13
2012-01-09 10:22:41 51°15.503 2°41.267 2.6 11.3 2 12.9
2012-01-09 10:23:41 51°15.69 2°41.231 347.9 11.5 349 13.4
2012-01-09 10:24:41 51°15.878 2°41.173 346.4 11.5 348 14.3
2012-01-09 10:25:41 51°16.015 2°40.997 302.1 10.8 297 18
2012-01-09 10:26:41 51°16.006 2°40.711 256.3 11.4 253 19.9
2012-01-09 10:27:41 51°15.917 2°40.441 242.2 11.6 240 20.5
2012-01-09 10:28:41 51°15.813 2°40.18 238.7 11.6 235 20.9
2012-01-09 10:29:41 51°15.702 2°39.927 239.3 11.5 237 21.2
2012-01-09 10:30:41 51°15.597 2°39.669 239.9 11.5 238 21.1
2012-01-09 10:31:41 51°15.487 2°39.417 238.9 11.6 236 20.9
2012-01-09 10:32:41 51°15.381 2°39.163 241.3 11.4 239 21
2012-01-09 10:33:41 51°15.281 2°38.907 237.6 11.3 237 19.9
2012-01-09 10:34:41 51°15.176 2°38.661 238.5 11 236 19.6
2012-01-09 10:35:41 51°15.06 2°38.432 231 11.1 231 18.4
2012-01-09 10:36:41 51°14.942 2°38.209 233 11 228 17
2012-01-09 10:37:41 51°14.828 2°37.986 234.8 10.8 229 15.8
2012-01-09 10:38:41 51°14.709 2°37.772 233 10.8 229 15
2012-01-09 10:39:41 51°14.604 2°37.544 241.8 10.5 238 14.4
2012-01-09 10:40:41 51°14.512 2°37.308 242.3 10.4 240 13.9
2012-01-09 10:41:41 51°14.414 2°37.077 239.1 10.5 234 13.9
2012-01-09 10:42:41 51°14.317 2°36.844 241 10.6 238 13
2012-01-09 10:43:41 51°14.22 2°36.614 238.9 10.4 233 14.1
2012-01-09 10:44:41 51°14.115 2°36.39 238.7 10.6 235 15.5
2012-01-09 10:45:41 51°14.014 2°36.162 237.4 10.5 232 16.8
2012-01-09 10:46:41 51°13.911 2°35.937 238.4 10.5 233 17.7
2012-01-09 10:47:41 51°13.813 2°35.707 241.1 10.6 236 17.3
2012-01-09 10:48:41 51°13.703 2°35.496 222.9 10.4 214 19.6
2012-01-09 10:49:41 51°13.531 2°35.399 199.6 11.3 192 19.9
2012-01-09 10:50:41 51°13.374 2°35.268 224.8 10.4 223 19.1
2012-01-09 10:51:41 51°13.27 2°35.049 238.6 10.4 235 19.3
2012-01-09 10:52:41 51°13.176 2°34.821 242 10.4 238 20
2012-01-09 10:53:41 51°13.1 2°34.574 246.9 10.3 245 19.9
2012-01-09 10:54:41 51°13.025 2°34.328 245.5 10.4 244 19.3
2012-01-09 10:55:41 51°12.948 2°34.08 245.1 10.5 241 19.1
2012-01-09 10:56:41 51°12.864 2°33.839 242.5 10.4 243 18.2
2012-01-09 10:57:41 51°12.778 2°33.599 242.9 10.5 241 18.1
2012-01-09 10:58:41 51°12.7 2°33.349 245.7 10.6 243 18.4
2012-01-09 10:59:41 51°12.623 2°33.099 244.4 10.6 243 17.4
2012-01-09 11:00:41 51°12.539 2°32.857 242 10.5 240 18.5
2012-01-09 11:01:41 51°12.461 2°32.609 246.6 10.4 245 19.3
2012-01-09 11:02:41 51°12.383 2°32.361 243.2 10.4 242 20.8
2012-01-09 11:03:41 51°12.304 2°32.114 242.4 10.5 242 21.5
2012-01-09 11:04:41 51°12.23 2°31.865 244.7 10.5 245 22.6
2012-01-09 11:05:41 51°12.157 2°31.616 244.9 10.3 246 23.7
2012-01-09 11:06:41 51°12.081 2°31.371 243.8 10.2 244 24.4
2012-01-09 11:07:41 51°12.01 2°31.124 246.1 10.2 249 24.1
2012-01-09 11:08:41 51°11.953 2°30.87 248.1 10.2 251 25.4
2012-01-09 11:09:41 51°11.899 2°30.62 248.9 10 253 26.1
2012-01-09 11:10:41 51°11.843 2°30.372 248.8 9.8 251 25.8
2012-01-09 11:11:41 51°11.775 2°30.136 243.8 9.7 245 26
2012-01-09 11:12:41 51°11.712 2°29.902 247 9.7 248 25.9
2012-01-09 11:13:41 51°11.654 2°29.663 249.4 9.7 251 25.9
2012-01-09 11:14:41 51°11.603 2°29.418 253.8 9.8 256 26.5
2012-01-09 11:15:41 51°11.576 2°29.159 257.7 9.9 261 26.7
2012-01-09 11:16:41 51°11.544 2°28.901 255.7 9.9 258 27.3
2012-01-09 11:17:41 51°11.505 2°28.645 257.1 9.9 258 26
2012-01-09 11:18:41 51°11.467 2°28.389 255.2 10 257 25.2
2012-01-09 11:19:41 51°11.436 2°28.131 259.5 10 261 22.7
2012-01-09 11:20:41 51°11.418 2°27.869 265.6 10.1 269 25.7
2012-01-09 11:21:41 51°11.463 2°27.614 296 10.3 305 21.8
2012-01-09 11:22:41 51°11.614 2°27.46 326.2 11.1 334 14.5
2012-01-09 11:23:41 51°11.781 2°27.325 325.1 11.3 332 12.2
2012-01-09 11:24:41 51°11.965 2°27.239 344.4 11.8 353 12.2
2012-01-09 11:25:41 51°12.166 2°27.214 347.8 12.2 358 13.5
2012-01-09 11:26:41 51°12.372 2°27.306 15.3 13.3 21 15.8
2012-01-09 11:27:41 51°12.576 2°27.447 17.9 13.3 22 19.4
2012-01-09 11:28:41 51°12.781 2°27.588 18.7 13.4 24 23.3
2012-01-09 11:29:41 51°12.983 2°27.748 18.7 13.5 25 25.2
2012-01-09 11:30:41 51°13.17 2°27.948 35.7 13.8 42 25.2
2012-01-09 11:31:41 51°13.34 2°28.19 38.4 13.7 43 24.6
2012-01-09 11:32:41 51°13.51 2°28.434 41.2 13.8 45 23.5
2012-01-09 11:33:41 51°13.677 2°28.684 39 13.7 44 22.3
2012-01-09 11:34:41 51°13.846 2°28.923 36.5 13.4 39 22.3
2012-01-09 11:35:41 51°14.011 2°29.175 38.9 13.7 42 20.6
2012-01-09 11:36:41 51°14.18 2°29.42 38.1 13.7 41 20.5
2012-01-09 11:37:41 51°14.344 2°29.674 39.5 13.6 44 19.6
2012-01-09 11:38:41 51°14.508 2°29.927 40.5 13.6 46 18.9
2012-01-09 11:39:41 51°14.672 2°30.185 40 13.7 45 16.2
2012-01-09 11:40:41 51°14.848 2°30.413 27.7 13.8 35 15.3
2012-01-09 11:41:41 51°15.04 2°30.605 27.3 13.7 33 21.6
2012-01-09 11:42:41 51°15.228 2°30.815 34.1 13.9 39 22.8
2012-01-09 11:43:41 51°15.394 2°31.077 40.7 14.1 44 22.2
2012-01-09 11:44:41 51°15.559 2°31.338 40 13.9 44 24.9
2012-01-09 11:45:41 51°15.73 2°31.592 40 14.1 42 27.1
2012-01-09 11:46:41 51°15.896 2°31.854 42.5 14.1 45 29.2
2012-01-09 11:47:41 51°16.066 2°32.106 36.7 14 43 29.6
2012-01-09 11:48:41 51°16.234 2°32.36 39.7 14 43 29.4
2012-01-09 11:49:41 51°16.4 2°32.621 40.5 13.9 44 29.3
2012-01-09 11:50:41 51°16.568 2°32.873 39.8 13.5 45 29.2
2012-01-09 11:51:41 51°16.659 2°33.101 85.4 7.6 84 28.5
2012-01-09 11:52:41 51°16.626 2°33.232 164.2 4 130 28.9
2012-01-09 11:53:41 51°16.582 2°33.253 218.8 2.9 195 26.9
2012-01-09 11:54:41 51°16.531 2°33.176 236.1 5.7 232 27.2
2012-01-09 11:55:41 51°16.442 2°33.069 223.6 7.1 219 26.5
2012-01-09 11:56:41 51°16.349 2°32.939 227.3 7.6 223 26.2
2012-01-09 11:57:41 51°16.258 2°32.799 229.4 7.6 226 25.8
2012-01-09 11:58:41 51°16.168 2°32.656 228.9 7.7 225 25.6
2012-01-09 11:59:41 51°16.078 2°32.515 228.9 7.3 224 25.1
2012-01-09 12:00:41 51°16.021 2°32.446 227 3 212 24.7
2012-01-09 12:01:41 51°15.985 2°32.381 248.4 4 255 23.5
2012-01-09 12:02:41 51°15.989 2°32.287 267.8 3 284 25.8
2012-01-09 12:03:41 51°16.001 2°32.225 265.7 2.4 285 27.3
2012-01-09 12:04:41 51°16.01 2°32.151 271.8 3.3 294 28.8
2012-01-09 12:05:41 51°16.053 2°32.083 290.3 3.2 320 29.7
2012-01-09 12:06:41 51°16.076 2°32.037 262.5 1.6 282 30.1
2012-01-09 12:07:41 51°16.066 2°31.998 241.3 2 238 29.8
2012-01-09 12:08:41 51°16.047 2°31.95 243 2.4 240 29.7
2012-01-09 12:09:41 51°16.028 2°31.893 245.9 2.4 243 30.2
2012-01-09 12:10:41 51°16.012 2°31.834 244 2.3 242 30
2012-01-09 12:11:41 51°15.992 2°31.776 241.8 2.6 235 30.3
2012-01-09 12:12:41 51°15.972 2°31.715 244.4 2.6 246 30.2
2012-01-09 12:13:41 51°15.954 2°31.654 245.9 2.6 245 30.1
2012-01-09 12:14:41 51°15.936 2°31.592 244.5 2.6 242 30.2
2012-01-09 12:15:41 51°15.917 2°31.53 244.7 2.7 250 30.3
2012-01-09 12:16:41 51°15.897 2°31.47 242.5 2.6 239 30.2
2012-01-09 12:17:41 51°15.885 2°31.407 256.8 2.6 266 30.3
2012-01-09 12:18:41 51°15.891 2°31.334 272.3 3 292 30.3
2012-01-09 12:19:41 51°15.933 2°31.271 302.2 4.1 330 30.4
2012-01-09 12:20:41 51°16.013 2°31.257 341.7 5.5 6 30.2
2012-01-09 12:21:41 51°16.104 2°31.314 16.9 6.2 32 31.1
2012-01-09 12:22:41 51°16.179 2°31.433 49.8 6.5 54 30.8
2012-01-09 12:23:41 51°16.218 2°31.591 84.6 6.5 78 30.9
2012-01-09 12:24:41 51°16.24 2°31.737 83 5.2 76 30.3
2012-01-09 12:25:41 51°16.259 2°31.864 89.1 4.7 78 30.3
2012-01-09 12:26:41 51°16.271 2°31.983 99.7 4.4 83 30
2012-01-09 12:27:41 51°16.276 2°32.095 110.3 4.1 88 29.6
2012-01-09 12:28:41 51°16.274 2°32.197 123.5 3.7 93 29.6
2012-01-09 12:29:41 51°16.267 2°32.292 132.6 3.5 100 29.4
2012-01-09 12:30:41 51°16.257 2°32.383 140.9 3.4 103 29.1
2012-01-09 12:31:41 51°16.244 2°32.469 150.1 3.2 109 29.6
2012-01-09 12:32:41 51°16.226 2°32.544 162.9 2.8 115 28.6
2012-01-09 12:33:41 51°16.207 2°32.609 172.5 2.8 123 27.7
2012-01-09 12:34:41 51°16.171 2°32.662 188.1 2.5 136 25.6
2012-01-09 12:35:41 51°16.152 2°32.704 197.5 1.7 116 23.3
2012-01-09 12:36:41 51°16.144 2°32.751 196.6 1.8 97 22
2012-01-09 12:37:41 51°16.118 2°32.781 206.1 3.4 183 18.6
2012-01-09 12:38:41 51°16.053 2°32.789 194.8 3.4 166 13.6
2012-01-09 12:39:41 51°16.011 2°32.818 202.2 2.3 151 11.6
2012-01-09 12:40:41 51°15.985 2°32.851 206.9 1.6 136 12.3
2012-01-09 12:41:41 51°15.958 2°32.865 221 3.2 194 11.8
2012-01-09 12:42:41 51°15.918 2°32.789 274.5 4.7 292 10.9
2012-01-09 12:43:41 51°16.022 2°32.784 14.9 8.6 29 12.2
2012-01-09 12:44:41 51°16.097 2°33.003 81.7 10.2 81 11.2
2012-01-09 12:45:41 51°16.11 2°33.285 90.1 11.3 89 11.9
2012-01-09 12:46:41 51°16.099 2°33.619 94.4 13.1 93 12.1
2012-01-09 12:47:41 51°16.084 2°33.98 95.1 13.9 95 14.1
2012-01-09 12:48:41 51°16.055 2°34.338 99 13.5 98 18.6
2012-01-09 12:49:41 51°16.033 2°34.689 95.2 13.3 95 27.2
2012-01-09 12:50:41 51°16.042 2°35.04 78.5 13.4 77 29.2
2012-01-09 12:51:41 51°16.13 2°35.374 58.9 13.8 59 29.2
2012-01-09 12:52:41 51°16.273 2°35.655 44.6 13.7 46 29.3
2012-01-09 12:53:41 51°16.421 2°35.935 50.9 13.9 54 29.7
2012-01-09 12:54:41 51°16.561 2°36.232 51.5 14 54 30.1
2012-01-09 12:55:41 51°16.704 2°36.528 51.3 14.1 53 29.6
2012-01-09 12:56:41 51°16.845 2°36.824 52.3 14 53 30.7
2012-01-09 12:57:41 51°16.982 2°37.128 54.3 14.1 55 31.6
2012-01-09 12:58:41 51°17.123 2°37.425 51.3 14.1 53 29.8
2012-01-09 12:59:41 51°17.28 2°37.709 45 14.2 46 30
2012-01-09 13:00:41 51°17.437 2°37.985 46.5 14.1 48 30.5
2012-01-09 13:01:41 51°17.592 2°38.266 47.5 14.3 49 30
2012-01-09 13:02:41 51°17.751 2°38.545 44.9 14 47 30.1
2012-01-09 13:03:41 51°17.91 2°38.825 45.8 14.3 47 30
2012-01-09 13:04:41 51°18.063 2°39.108 48 14.1 49 30.1
2012-01-09 13:05:41 51°18.245 2°39.301 7.5 12.8 9 29.4
2012-01-09 13:06:41 51°18.41 2°39.177 297.7 10.6 304 29.3
2012-01-09 13:07:41 51°18.402 2°38.914 250.2 10.5 254 29.6
2012-01-09 13:08:41 51°18.357 2°38.639 253.5 10.9 258 30.2
2012-01-09 13:09:41 51°18.328 2°38.354 255.5 10.8 260 29.6
2012-01-09 13:10:41 51°18.313 2°38.067 265.5 11 271 29.3
2012-01-09 13:11:41 51°18.312 2°37.775 264.6 11.1 269 26.8
2012-01-09 13:12:41 51°18.31 2°37.483 263.2 10.9 268 26.3
2012-01-09 13:13:41 51°18.314 2°37.195 268.2 10.9 275 24.2
2012-01-09 13:14:41 51°18.33 2°36.907 270.5 10.9 276 22
2012-01-09 13:15:41 51°18.341 2°36.621 268.6 10.7 274 16.8
2012-01-09 13:16:41 51°18.359 2°36.336 271.5 10.7 276 20.2
2012-01-09 13:17:41 51°18.379 2°36.051 273.4 10.9 278 25.9
2012-01-09 13:18:41 51°18.406 2°35.765 274.4 10.8 277 28.8
2012-01-09 13:19:41 51°18.425 2°35.48 271.5 10.8 277 30.2
2012-01-09 13:20:41 51°18.461 2°35.199 277.9 10.8 284 30.3
2012-01-09 13:21:41 51°18.499 2°34.919 276.6 10.8 282 29.3
2012-01-09 13:22:41 51°18.534 2°34.635 275.2 10.9 279 29.1
2012-01-09 13:23:41 51°18.569 2°34.35 275.9 10.9 283 25.8
2012-01-09 13:24:41 51°18.601 2°34.067 274.6 10.8 281 22.6
2012-01-09 13:25:41 51°18.645 2°33.786 278.6 11 285 19.8
2012-01-09 13:26:41 51°18.699 2°33.511 290.8 11.1 305 22
2012-01-09 13:27:41 51°18.881 2°33.494 25.2 12.9 33 26.8
2012-01-09 13:28:41 51°19.025 2°33.773 51.5 14.1 52 23.6
2012-01-09 13:29:41 51°19.175 2°34.064 51.7 14.1 51 16.3
2012-01-09 13:30:41 51°19.318 2°34.362 52.2 14.2 53 16.5
2012-01-09 13:31:41 51°19.468 2°34.648 48 14.1 49 16.3
2012-01-09 13:32:41 51°19.614 2°34.938 49.3 14 51 17.7
2012-01-09 13:33:41 51°19.764 2°35.222 50.7 14.1 53 19.4
2012-01-09 13:34:41 51°19.906 2°35.516 53.8 14 52 19.8
2012-01-09 13:35:41 51°20.054 2°35.8 49.9 14.1 50 21.1
2012-01-09 13:36:41 51°20.204 2°36.079 47.3 13.7 47 21.8
2012-01-09 13:37:41 51°20.35 2°36.365 52.6 13.8 52 23.2
2012-01-09 13:38:41 51°20.497 2°36.647 49.5 13.9 52 23.9
2012-01-09 13:39:41 51°20.637 2°36.941 51.4 13.7 51 24.8
2012-01-09 13:40:41 51°20.785 2°37.221 50.7 13.9 49 26.5
2012-01-09 13:41:41 51°20.929 2°37.51 50.2 13.8 51 27
2012-01-09 13:42:41 51°21.078 2°37.791 49.9 14 51 28.1
2012-01-09 13:43:41 51°21.219 2°38.08 51.9 13.6 52 28.3
2012-01-09 13:44:41 51°21.364 2°38.361 50.2 13.5 47 28.6
2012-01-09 13:45:41 51°21.515 2°38.639 47.9 13.9 48 29.6
2012-01-09 13:46:41 51°21.665 2°38.913 47.4 13.6 48 30
2012-01-09 13:47:41 51°21.823 2°39.182 45.8 13.9 47 31
2012-01-09 13:48:41 51°21.982 2°39.445 45 13.8 46 30.8
2012-01-09 13:49:41 51°22.142 2°39.715 46.4 13.7 46 31.5
2012-01-09 13:50:41 51°22.296 2°39.983 46.9 13.6 45 31.8
2012-01-09 13:51:41 51°22.45 2°40.255 47.7 13.9 47 32.1
2012-01-09 13:52:41 51°22.605 2°40.522 45.8 13.7 47 32.1
2012-01-09 13:53:41 51°22.762 2°40.79 47.8 14 45 31.6
2012-01-09 13:54:41 51°22.916 2°41.061 48.7 13.7 47 33.1
2012-01-09 13:55:41 51°23.074 2°41.329 45.9 13.9 46 31.7
2012-01-09 13:56:41 51°23.233 2°41.597 47.3 13.9 47 30.3
2012-01-09 13:57:41 51°23.387 2°41.874 48.3 14 47 30
2012-01-09 13:58:41 51°23.548 2°42.141 45.8 13.9 46 28.6
2012-01-09 13:59:41 51°23.709 2°42.405 46 14 46 29
2012-01-09 14:00:41 51°23.864 2°42.682 50.8 13.8 50 25.8
2012-01-09 14:01:41 51°24.019 2°42.954 48.2 13.8 48 28.5
2012-01-09 14:02:41 51°24.18 2°43.221 46 14 47 28.2
2012-01-09 14:03:41 51°24.338 2°43.49 48.2 13.9 48 27.8
2012-01-09 14:04:41 51°24.496 2°43.758 47.9 13.9 47 28.2
2012-01-09 14:05:41 51°24.651 2°44.031 49.2 14 49 23.7
2012-01-09 14:06:41 51°24.811 2°44.295 47.7 13.8 46 26.7
2012-01-09 14:07:41 51°24.973 2°44.555 44.4 13.8 45 26.4
2012-01-09 14:08:41 51°25.129 2°44.82 47.3 13.8 45 27.1
2012-01-09 14:09:41 51°25.29 2°45.081 48 13.9 44 28.1
2012-01-09 14:10:41 51°25.448 2°45.345 49.8 13.5 50 27
2012-01-09 14:11:41 51°25.547 2°45.671 71.2 13.6 65 27.9
2012-01-09 14:12:41 51°25.644 2°46.001 64.9 13.7 64 26.6
2012-01-09 14:13:41 51°25.737 2°46.329 70 13.3 65 26.2
2012-01-09 14:14:41 51°25.833 2°46.653 64.2 13.5 61 26.5
2012-01-09 14:15:41 51°25.951 2°46.965 62.1 13.8 58 26.1
2012-01-09 14:16:41 51°26.064 2°47.281 63.6 13.6 61 26.2
2012-01-09 14:17:41 51°26.171 2°47.599 65.3 13.5 65 22.8
2012-01-09 14:18:41 51°26.278 2°47.917 66 13.7 62 23.6
2012-01-09 14:19:41 51°26.386 2°48.242 64.7 13.7 63 24.7
2012-01-09 14:20:41 51°26.499 2°48.558 62 13.8 59 22.9
2012-01-09 14:21:41 51°26.61 2°48.874 66.6 13.6 63 23.8
2012-01-09 14:22:41 51°26.716 2°49.196 67.4 13.5 65 23.2
2012-01-09 14:23:41 51°26.823 2°49.521 64.4 13.9 61 21.5
2012-01-09 14:24:41 51°26.938 2°49.838 63.1 13.8 59 21.1
2012-01-09 14:25:41 51°27.05 2°50.16 65 13.7 61 22.7
2012-01-09 14:26:41 51°27.158 2°50.481 63.2 13.7 59 21.6
2012-01-09 14:27:41 51°27.267 2°50.802 64.7 13.6 62 21.6
2012-01-09 14:28:41 51°27.376 2°51.124 62.5 13.7 58 21.2
2012-01-09 14:29:41 51°27.485 2°51.444 66.1 13.6 61 22.6
2012-01-09 14:30:41 51°27.595 2°51.763 66.9 13.8 63 21.3
2012-01-09 14:31:41 51°27.699 2°52.087 64.6 13.6 63 23.3
2012-01-09 14:32:41 51°27.81 2°52.403 64.4 13.6 61 23.6
2012-01-09 14:33:41 51°27.922 2°52.72 63.7 13.8 60 22.8
2012-01-09 14:34:41 51°28.034 2°53.038 63.5 13.6 62 22.9
2012-01-09 14:35:41 51°28.138 2°53.362 67 13.6 64 23.5
2012-01-09 14:36:41 51°28.247 2°53.682 62.8 13.7 61 24.5
2012-01-09 14:37:41 51°28.35 2°53.979 61.5 10.4 59 24.8
2012-01-09 14:38:41 51°28.417 2°54.152 64.4 6.1 61 23.9
2012-01-09 14:39:41 51°28.458 2°54.273 70.5 4.6 63 24
2012-01-09 14:40:41 51°28.489 2°54.399 84.4 6.6 77 23.7
2012-01-09 14:41:41 51°28.496 2°54.538 106.3 4.3 87 24.4
2012-01-09 14:42:41 51°28.495 2°54.632 120.2 3 92 23.9
2012-01-09 14:43:41 51°28.494 2°54.705 131.1 2.8 99 22.9
2012-01-09 14:44:41 51°28.455 2°54.794 153 5 140 23
2012-01-09 14:45:41 51°28.395 2°54.839 178.9 3.3 158 23.6
2012-01-09 14:46:41 51°28.352 2°54.857 190.7 2.4 172 23.3
2012-01-09 14:47:41 51°28.311 2°54.857 201 2.6 188 22.3
2012-01-09 14:48:41 51°28.272 2°54.848 207.4 2.4 191 23.7
2012-01-09 14:49:41 51°28.238 2°54.822 221.5 2.2 213 23.4
2012-01-09 14:50:41 51°28.209 2°54.785 222.9 2.2 215 23.5
2012-01-09 14:51:41 51°28.18 2°54.751 221.8 2.3 215 22.8
2012-01-09 14:52:41 51°28.146 2°54.712 222.5 2.6 218 23.7
2012-01-09 14:53:41 51°28.113 2°54.666 226.3 2.7 215 22.7
2012-01-09 14:54:41 51°28.08 2°54.621 225.2 2.6 224 23.7
2012-01-09 14:55:41 51°28.047 2°54.576 223.6 2.5 215 23.1
2012-01-09 14:56:41 51°28.014 2°54.533 222.2 2.5 216 23.7
2012-01-09 14:57:41 51°27.979 2°54.492 219.8 2.7 218 22.5
2012-01-09 14:58:41 51°27.943 2°54.453 221.3 2.5 209 24.5
2012-01-09 14:59:41 51°27.911 2°54.41 230.6 2.5 232 24.5
2012-01-09 15:00:41 51°27.888 2°54.355 237.3 2.5 238 24
2012-01-09 15:01:41 51°27.865 2°54.295 234.6 2.5 233 21.7
2012-01-09 15:02:41 51°27.841 2°54.241 234.7 2.5 241 24.8
2012-01-09 15:03:41 51°27.818 2°54.182 234.5 2.7 237 22.9
2012-01-09 15:04:41 51°27.792 2°54.126 230.7 2.6 235 24
2012-01-09 15:05:41 51°27.763 2°54.073 229.1 2.6 232 23.8
2012-01-09 15:06:41 51°27.736 2°54.018 233.7 2.7 237 22.8
2012-01-09 15:07:41 51°27.712 2°53.962 232.5 2.7 234 23.7
2012-01-09 15:08:41 51°27.686 2°53.909 232.5 2.5 230 25.2
2012-01-09 15:09:41 51°27.658 2°53.857 230.2 2.6 228 24.8
2012-01-09 15:10:41 51°27.631 2°53.802 233 2.7 233 24
2012-01-09 15:11:41 51°27.605 2°53.745 231.8 2.7 231 24.7
2012-01-09 15:12:41 51°27.579 2°53.694 230.7 2.3 221 25.5
2012-01-09 15:13:41 51°27.552 2°53.64 238.5 2.6 242 25.1
2012-01-09 15:14:41 51°27.54 2°53.575 252.5 2.6 262 24.4
2012-01-09 15:15:41 51°27.539 2°53.504 255.4 2.7 267 23.8
2012-01-09 15:16:41 51°27.533 2°53.432 247.1 2.7 252 22.8
2012-01-09 15:17:41 51°27.51 2°53.371 230.9 2.7 228 24.5
2012-01-09 15:18:41 51°27.481 2°53.314 232.2 2.9 231 23.6
2012-01-09 15:19:41 51°27.452 2°53.257 233.1 2.8 234 23.4
2012-01-09 15:20:41 51°27.425 2°53.2 233.1 2.7 232 25
2012-01-09 15:21:41 51°27.399 2°53.143 237.7 2.6 237 23.1
2012-01-09 15:22:41 51°27.381 2°53.08 247.1 2.6 254 23.4
2012-01-09 15:23:41 51°27.387 2°53.011 276.5 2.8 293 22.8
2012-01-09 15:24:41 51°27.417 2°52.94 284.3 3.3 303 21.4
2012-01-09 15:25:41 51°27.459 2°52.877 312.9 3.8 335 21.6
2012-01-09 15:26:41 51°27.526 2°52.851 334.6 4.1 356 22.1
2012-01-09 15:27:41 51°27.595 2°52.873 9.9 4.3 22 21.4
2012-01-09 15:28:41 51°27.652 2°52.938 41.6 4.1 46 21.2
2012-01-09 15:29:41 51°27.684 2°53.025 78.9 3.6 69 22.5
2012-01-09 15:30:41 51°27.695 2°53.119 100 3.3 84 21.5
2012-01-09 15:31:41 51°27.689 2°53.226 117.1 5.3 107 23
2012-01-09 15:32:41 51°27.634 2°53.338 151.1 5.3 145 23.5
2012-01-09 15:33:41 51°27.581 2°53.384 174.9 2.6 153 22.9
2012-01-09 15:34:41 51°27.516 2°53.384 199.7 4.7 198 25.2
2012-01-09 15:35:41 51°27.473 2°53.357 216.6 1.7 201 24.2
2012-01-09 15:36:41 51°27.457 2°53.352 217.5 0.6 169 25.4
2012-01-09 15:37:41 51°27.453 2°53.364 217.3 0.6 105 26.2
2012-01-09 15:38:41 51°27.454 2°53.384 216.4 0.5 106 25.7
2012-01-09 15:39:41 51°27.415 2°53.376 199 5 195 25.1
2012-01-09 15:40:41 51°27.299 2°53.315 200.5 8.7 201 28.2
2012-01-09 15:41:41 51°27.141 2°53.21 202.3 11.3 205 29.2
2012-01-09 15:42:41 51°26.97 2°53.091 202.2 11.2 204 29.5
2012-01-09 15:43:41 51°26.794 2°52.993 192.3 11.4 190 29.7
2012-01-09 15:44:41 51°26.604 2°52.957 187.3 11.4 188 30.3
2012-01-09 15:45:41 51°26.414 2°52.911 190.6 11.7 189 26.3
2012-01-09 15:46:41 51°26.226 2°52.865 191 11.4 189 26.7
2012-01-09 15:47:41 51°26.037 2°52.822 189.2 11.5 188 28.2
2012-01-09 15:48:41 51°25.848 2°52.784 188.6 11.4 188 27.9
2012-01-09 15:49:41 51°25.66 2°52.746 187.7 11.5 187 26.6
2012-01-09 15:50:41 51°25.474 2°52.695 191.1 11.4 188 25.4
2012-01-09 15:51:41 51°25.286 2°52.646 188.3 11.6 190 24.3
2012-01-09 15:52:41 51°25.098 2°52.598 189.9 11.6 190 24.6
2012-01-09 15:53:41 51°24.911 2°52.538 192.4 11.4 191 23.7
2012-01-09 15:54:41 51°24.722 2°52.496 187.1 11.4 188 21.7
2012-01-09 15:55:41 51°24.531 2°52.473 178.6 11.4 178 20.5
2012-01-09 15:56:41 51°24.338 2°52.486 178 11.7 176 19.3
2012-01-09 15:57:41 51°24.144 2°52.495 178.6 11.9 179 20.7
2012-01-09 15:58:41 51°23.952 2°52.502 178.1 11.7 180 18.2
2012-01-09 15:59:41 51°23.761 2°52.5 179.1 11.3 180 16.1
2012-01-09 16:00:41 51°23.568 2°52.511 177.9 11.6 178 19.7
2012-01-09 16:01:41 51°23.376 2°52.508 180.5 11.5 182 21.8
2012-01-09 16:02:41 51°23.183 2°52.512 178.2 11.5 179 23.2
2012-01-09 16:03:41 51°22.989 2°52.508 184.3 11.5 186 23.6
2012-01-09 16:04:41 51°22.795 2°52.482 183.7 11.5 184 24.5
2012-01-09 16:05:41 51°22.602 2°52.466 183.2 11.7 184 23.7
2012-01-09 16:06:41 51°22.407 2°52.476 174.5 11.7 179 23.8
2012-01-09 16:07:41 51°22.213 2°52.48 179.9 11.6 181 24.9
2012-01-09 16:08:41 51°22.017 2°52.455 184.3 11.7 185 24.9
2012-01-09 16:09:41 51°21.823 2°52.435 182.5 12 185 23.7
2012-01-09 16:10:41 51°21.627 2°52.41 182.2 11.9 185 21.7
2012-01-09 16:11:41 51°21.429 2°52.4 178.6 11.9 181 19.3
2012-01-09 16:12:41 51°21.23 2°52.383 183.1 12.2 186 18.2
2012-01-09 16:13:41 51°21.03 2°52.357 182.5 12.2 185 16.9
2012-01-09 16:14:41 51°20.833 2°52.333 181.2 11.7 183 15.2
2012-01-09 16:15:41 51°20.635 2°52.318 180.1 11.7 181 14.9
2012-01-09 16:16:41 51°20.438 2°52.303 182.5 11.8 185 15.6
2012-01-09 16:17:41 51°20.24 2°52.29 178.4 11.8 181 16.5
2012-01-09 16:18:41 51°20.043 2°52.284 179 11.8 181 16.9
2012-01-09 16:19:41 51°19.846 2°52.275 179.4 11.7 181 17
2012-01-09 16:20:41 51°19.648 2°52.26 178.4 11.9 181 16.3
2012-01-09 16:21:41 51°19.45 2°52.246 179.6 12 182 16.1
2012-01-09 16:22:41 51°19.251 2°52.236 179.4 11.9 183 15.4
2012-01-09 16:23:41 51°19.053 2°52.23 176.9 12 180 14.6
2012-01-09 16:24:41 51°18.855 2°52.222 177.2 11.9 180 13.6
2012-01-09 16:25:41 51°18.656 2°52.21 179.3 11.9 183 12.7
2012-01-09 16:26:41 51°18.459 2°52.221 173.8 12.1 178 12
2012-01-09 16:27:41 51°18.261 2°52.239 172.8 12.1 175 12
2012-01-09 16:28:41 51°18.064 2°52.26 172.4 11.6 176 11.4
2012-01-09 16:29:41 51°17.867 2°52.264 177.6 11.9 181 11.4
2012-01-09 16:30:41 51°17.668 2°52.267 176.1 12 181 11.4
2012-01-09 16:31:41 51°17.472 2°52.307 163.9 11.7 165 11
2012-01-09 16:32:41 51°17.289 2°52.427 150.5 12 153 10.5
2012-01-09 16:33:41 51°17.106 2°52.545 157.1 11.9 161 10.2
2012-01-09 16:34:41 51°16.919 2°52.645 157.8 12 162 10.1
2012-01-09 16:35:41 51°16.74 2°52.78 151.1 11.8 157 10.7
2012-01-09 16:36:41 51°16.553 2°52.894 158.2 12.1 161 12.2
2012-01-09 16:37:41 51°16.364 2°53.002 154.7 12 159 12.8
2012-01-09 16:38:41 51°16.176 2°53.116 153.1 12.2 157 12.8
2012-01-09 16:39:41 51°16.001 2°53.267 143 12 146 13.1
2012-01-09 16:40:41 51°15.828 2°53.425 144 11.9 148 12.8
2012-01-09 16:41:41 51°15.668 2°53.592 142.7 10.3 147 12.1
2012-01-09 16:42:41 51°15.554 2°53.713 143.1 6.9 151 12
2012-01-09 16:43:41 51°15.47 2°53.797 139.7 5.3 149 11.5
2012-01-09 16:44:41 51°15.401 2°53.86 140.8 4.5 149 10.7
2012-01-09 16:45:41 51°15.339 2°53.917 141.5 4.2 150 10.6
2012-01-09 16:46:41 51°15.28 2°53.973 139.1 4 147 9.8
2012-01-09 16:47:41 51°15.219 2°54.045 139.4 5.4 144 9.6
2012-01-09 16:48:41 51°15.137 2°54.152 135.1 7.3 140 9.5
2012-01-09 16:49:41 51°15.029 2°54.31 134.5 9.9 140 9
2012-01-09 16:50:41 51°14.894 2°54.507 133.2 11.8 138 11.5
2012-01-09 16:51:41 51°14.744 2°54.721 131.5 11.9 137 11.5
2012-01-09 16:52:41 51°14.592 2°54.924 133.4 11.6 142 11.8
2012-01-09 16:53:42 51°14.438 2°55.121 142.9 10.9 144 10.8
2012-01-09 16:54:43 51°14.294 2°55.266 147.5 9.7 150 10.4
2012-01-09 16:55:44 51°14.158 2°55.388 150.3 8.9 155 10.5
2012-01-09 16:56:44 51°14.024 2°55.485 154.1 8.8 157 10.4
2012-01-09 16:57:44 51°13.917 2°55.562 154.7 6.3 156 10.5
2012-01-09 16:58:44 51°13.826 2°55.631 152 5.9 153 11.5
2012-01-09 16:59:44 51°13.749 2°55.722 135.8 5.8 135 11.1
2012-01-09 17:00:44 51°13.692 2°55.828 127.1 4.7 129 -999
2012-01-09 17:01:44 51°13.656 2°55.922 114.3 3.8 114 9.4
2012-01-09 17:02:44 51°13.641 2°56.006 105.5 2.1 109 8.6